createdAt,value
2022-12-20T00:00:52.793Z,52.95
2022-12-20T00:03:20.681Z,53.01
2022-12-20T00:05:47.585Z,52.98
2022-12-20T00:08:14.568Z,53.02
2022-12-20T00:10:43.710Z,52.85
2022-12-20T00:13:12.449Z,53.24
2022-12-20T00:15:39.612Z,53.24
2022-12-20T00:18:06.920Z,52.84
2022-12-20T00:20:34.147Z,53.06
2022-12-20T00:23:01.768Z,52.79
2022-12-20T00:25:28.888Z,52.95
2022-12-20T00:27:55.717Z,53.01
2022-12-20T00:30:22.976Z,52.83
2022-12-20T00:32:50.249Z,53.12
2022-12-20T00:35:17.265Z,53.38
2022-12-20T00:37:44.140Z,52.80
2022-12-20T00:40:11.295Z,52.85
2022-12-20T00:42:38.101Z,52.97
2022-12-20T00:45:05.409Z,52.97
2022-12-20T00:47:32.219Z,53.14
2022-12-20T00:49:59.280Z,53.08
2022-12-20T00:52:26.113Z,52.81
2022-12-20T00:54:52.843Z,53.21
2022-12-20T00:57:19.738Z,53.13
2022-12-20T00:59:46.511Z,52.95
2022-12-20T01:02:13.792Z,52.94
2022-12-20T01:04:41.396Z,52.79
2022-12-20T01:07:08.782Z,53.20
2022-12-20T01:09:35.528Z,53.08
2022-12-20T01:12:03.898Z,52.76
2022-12-20T01:14:30.840Z,52.78
2022-12-20T01:16:59.243Z,53.11
2022-12-20T01:19:26.791Z,52.70
2022-12-20T01:21:53.645Z,52.88
2022-12-20T01:24:20.887Z,52.67
2022-12-20T01:26:48.091Z,53.06
2022-12-20T01:29:14.894Z,53.02
2022-12-20T01:31:42.574Z,52.75
2022-12-20T01:34:10.719Z,52.91
2022-12-20T01:36:38.756Z,53.14
2022-12-20T01:39:09.388Z,53.15
2022-12-20T01:41:37.623Z,52.97
2022-12-20T01:44:06.918Z,52.83
2022-12-20T01:46:36.235Z,52.71
2022-12-20T01:49:29.657Z,52.80
2022-12-20T01:52:02.130Z,52.91
2022-12-20T01:54:55.193Z,52.61
2022-12-20T01:57:26.862Z,52.76
2022-12-20T01:59:55.480Z,52.87
2022-12-20T02:02:22.964Z,52.59
2022-12-20T02:04:50.177Z,52.96
2022-12-20T02:07:20.759Z,52.86
2022-12-20T02:09:47.387Z,52.60
2022-12-20T02:12:22.392Z,52.86
2022-12-20T02:15:04.595Z,52.54
2022-12-20T02:17:41.897Z,52.58
2022-12-20T02:20:33.163Z,52.92
2022-12-20T02:23:18.890Z,52.85
2022-12-20T02:25:53.010Z,53.07
2022-12-20T02:28:23.148Z,52.71
2022-12-20T02:30:55.089Z,52.99
2022-12-20T02:33:24.317Z,52.65
2022-12-20T02:35:51.240Z,52.54
2022-12-20T02:38:33.378Z,52.76
2022-12-20T02:41:11.628Z,53.08
2022-12-20T02:43:59.077Z,52.58
2022-12-20T02:46:27.056Z,52.52
2022-12-20T02:48:57.158Z,52.52
2022-12-20T02:51:26.561Z,52.56
2022-12-20T02:53:53.290Z,52.48
2022-12-20T02:56:31.590Z,52.71
2022-12-20T02:59:07.751Z,52.58
2022-12-20T03:01:39.561Z,52.83
2022-12-20T03:04:07.358Z,52.60
2022-12-20T03:06:34.549Z,52.49
2022-12-20T03:09:02.218Z,52.77
2022-12-20T03:11:32.256Z,52.52
2022-12-20T03:13:59.524Z,52.32
2022-12-20T03:16:26.620Z,52.84
2022-12-20T03:18:53.465Z,52.66
2022-12-20T03:21:20.270Z,52.80
2022-12-20T03:23:47.144Z,52.71
2022-12-20T03:26:13.863Z,52.53
2022-12-20T03:28:45.095Z,52.58
2022-12-20T03:31:16.307Z,52.30
2022-12-20T03:33:48.697Z,52.66
2022-12-20T03:36:15.876Z,52.71
2022-12-20T03:38:42.821Z,52.66
2022-12-20T03:41:10.061Z,52.56
2022-12-20T03:43:39.618Z,52.25
2022-12-20T03:46:11.943Z,52.38
2022-12-20T03:48:39.475Z,52.27
2022-12-20T03:51:10.183Z,52.21
2022-12-20T03:53:37.470Z,52.43
2022-12-20T03:56:04.393Z,52.47
2022-12-20T03:58:31.350Z,52.60
2022-12-20T04:01:00.342Z,52.63
2022-12-20T04:03:38.428Z,52.61
2022-12-20T04:06:06.212Z,52.26
2022-12-20T04:08:32.995Z,51.99
2022-12-20T04:11:18.211Z,52.12
2022-12-20T04:13:53.313Z,52.09
2022-12-20T04:16:26.470Z,52.53
2022-12-20T04:18:54.863Z,52.10
2022-12-20T04:21:31.270Z,52.54
2022-12-20T04:23:59.969Z,52.41
2022-12-20T04:26:36.753Z,52.07
2022-12-20T04:29:04.324Z,52.07
2022-12-20T04:31:31.820Z,52.04
2022-12-20T04:33:59.703Z,52.30
2022-12-20T04:36:26.823Z,52.35
2022-12-20T04:38:55.102Z,52.45
2022-12-20T04:41:24.669Z,52.24
2022-12-20T04:43:58.327Z,52.01
2022-12-20T04:46:33.512Z,52.17
2022-12-20T04:49:07.609Z,51.97
2022-12-20T04:51:38.849Z,52.03
2022-12-20T04:54:06.098Z,52.31
2022-12-20T04:56:42.130Z,51.96
2022-12-20T04:59:12.602Z,52.20
2022-12-20T05:01:42.169Z,51.98
2022-12-20T05:04:10.179Z,52.38
2022-12-20T05:06:38.105Z,51.93
2022-12-20T05:09:04.862Z,52.34
2022-12-20T05:11:33.171Z,51.95
2022-12-20T05:14:00.703Z,51.90
2022-12-20T05:16:27.591Z,52.20
2022-12-20T05:18:54.754Z,52.25
2022-12-20T05:21:39.955Z,51.83
2022-12-20T05:24:27.531Z,51.96
2022-12-20T05:27:04.283Z,52.24
2022-12-20T05:29:31.113Z,51.93
2022-12-20T05:31:57.889Z,51.95
2022-12-20T05:34:25.744Z,51.90
2022-12-20T05:36:54.293Z,52.34
2022-12-20T05:39:23.398Z,51.89
2022-12-20T05:41:53.840Z,51.78
2022-12-20T05:44:24.080Z,51.81
2022-12-20T05:46:55.601Z,51.57
2022-12-20T05:49:27.732Z,51.75
2022-12-20T05:51:55.640Z,51.83
2022-12-20T05:54:25.495Z,51.86
2022-12-20T05:56:57.974Z,51.70
2022-12-20T05:59:32.979Z,51.79
2022-12-20T06:02:00.415Z,51.89
2022-12-20T06:04:27.571Z,51.86
2022-12-20T06:06:54.501Z,51.91
2022-12-20T06:09:21.416Z,51.77
2022-12-20T06:11:55.569Z,51.68
2022-12-20T06:14:22.783Z,51.69
2022-12-20T06:16:49.793Z,51.97
2022-12-20T06:19:21.612Z,51.83
2022-12-20T06:21:51.984Z,51.64
2022-12-20T06:24:25.438Z,51.51
2022-12-20T06:26:53.611Z,51.74
2022-12-20T06:29:21.058Z,51.75
2022-12-20T06:31:55.127Z,51.86
2022-12-20T06:34:22.785Z,51.78
2022-12-20T06:36:49.756Z,51.51
2022-12-20T06:39:20.898Z,51.78
2022-12-20T06:42:01.181Z,51.58
2022-12-20T06:44:28.068Z,51.66
2022-12-20T06:46:55.381Z,51.46
2022-12-20T06:49:22.606Z,51.45
2022-12-20T06:51:51.141Z,51.72
2022-12-20T06:54:21.992Z,51.16
2022-12-20T06:56:48.876Z,50.75
2022-12-20T06:59:16.585Z,50.53
2022-12-20T07:01:43.506Z,50.16
2022-12-20T07:04:10.447Z,50.14
2022-12-20T07:06:37.243Z,49.90
2022-12-20T07:09:05.103Z,50.23
2022-12-20T07:11:38.324Z,49.92
2022-12-20T07:14:06.982Z,50.09
2022-12-20T07:16:33.731Z,49.96
2022-12-20T07:19:00.721Z,49.76
2022-12-20T07:21:27.966Z,50.03
2022-12-20T07:23:57.961Z,49.65
2022-12-20T07:26:24.934Z,49.73
2022-12-20T07:28:51.646Z,50.01
2022-12-20T07:31:18.695Z,49.75
2022-12-20T07:33:45.445Z,49.57
2022-12-20T07:36:13.682Z,49.58
2022-12-20T07:38:40.666Z,49.57
2022-12-20T07:41:08.950Z,49.66
2022-12-20T07:43:36.009Z,49.31
2022-12-20T07:46:03.922Z,49.68
2022-12-20T07:48:30.791Z,49.27
2022-12-20T07:51:03.995Z,49.53
2022-12-20T07:53:32.227Z,49.55
2022-12-20T07:55:59.644Z,49.19
2022-12-20T07:58:27.457Z,49.33
2022-12-20T08:00:54.881Z,49.09
2022-12-20T08:03:27.613Z,48.88
2022-12-20T08:05:56.253Z,48.77
2022-12-20T08:08:23.120Z,48.94
2022-12-20T08:10:50.349Z,48.82
2022-12-20T08:13:17.137Z,48.81
2022-12-20T08:15:44.046Z,48.83
2022-12-20T08:18:10.703Z,49.04
2022-12-20T08:20:37.428Z,48.56
2022-12-20T08:23:04.723Z,48.96
2022-12-20T08:25:34.668Z,48.77
2022-12-20T08:28:06.177Z,49.06
2022-12-20T08:30:32.945Z,48.90
2022-12-20T08:32:59.698Z,48.64
2022-12-20T08:35:26.455Z,48.46
2022-12-20T08:37:53.243Z,48.56
2022-12-20T08:40:20.676Z,48.90
2022-12-20T08:42:47.603Z,48.85
2022-12-20T08:45:14.556Z,48.36
2022-12-20T08:47:41.401Z,48.17
2022-12-20T08:50:08.662Z,48.14
2022-12-20T08:52:35.592Z,48.08
2022-12-20T08:55:03.192Z,48.24
2022-12-20T08:57:32.003Z,48.13
2022-12-20T08:59:58.696Z,48.21
2022-12-20T09:02:25.556Z,48.21
2022-12-20T09:04:52.456Z,48.16
2022-12-20T09:07:19.219Z,47.72
2022-12-20T09:09:46.791Z,47.92
2022-12-20T09:12:14.281Z,47.72
2022-12-20T09:14:50.035Z,47.51
2022-12-20T09:17:25.633Z,47.92
2022-12-20T09:20:01.926Z,47.51
2022-12-20T09:22:33.537Z,47.48
2022-12-20T09:25:02.342Z,47.69
2022-12-20T09:27:33.960Z,47.60
2022-12-20T09:30:08.707Z,47.51
2022-12-20T09:32:36.558Z,47.44
2022-12-20T09:35:04.227Z,47.53
2022-12-20T09:37:32.296Z,47.55
2022-12-20T09:39:59.239Z,47.17
2022-12-20T09:42:27.554Z,47.18
2022-12-20T09:45:01.919Z,47.21
2022-12-20T09:47:28.762Z,47.50
2022-12-20T09:49:56.730Z,47.02
2022-12-20T09:52:40.268Z,47.26
2022-12-20T09:55:27.515Z,47.52
2022-12-20T09:58:24.684Z,47.15
2022-12-20T10:00:54.332Z,46.77
2022-12-20T10:03:39.847Z,47.12
2022-12-20T10:06:23.336Z,47.16
2022-12-20T10:08:53.039Z,46.94
2022-12-20T10:11:40.720Z,46.62
2022-12-20T10:14:29.013Z,46.56
2022-12-20T10:17:04.483Z,46.39
2022-12-20T10:19:40.574Z,46.30
2022-12-20T10:22:35.931Z,46.66
2022-12-20T10:25:20.709Z,46.40
2022-12-20T10:27:49.827Z,46.14
2022-12-20T10:30:22.925Z,46.52
2022-12-20T10:32:52.074Z,46.45
2022-12-20T10:35:48.654Z,46.18
2022-12-20T10:38:18.378Z,45.77
2022-12-20T10:43:49.926Z,45.75
2022-12-20T10:46:16.930Z,46.04
2022-12-20T10:48:46.022Z,45.82
2022-12-20T10:51:16.186Z,45.79
2022-12-20T10:53:52.515Z,45.54
2022-12-20T10:56:27.556Z,45.68
2022-12-20T10:58:59.492Z,45.49
2022-12-20T11:01:35.771Z,45.52
2022-12-20T11:04:06.376Z,45.47
2022-12-20T11:06:40.054Z,45.66
2022-12-20T11:09:19.687Z,45.88
2022-12-20T11:12:16.359Z,45.98
2022-12-20T11:14:45.638Z,45.52
2022-12-20T11:17:34.386Z,45.71
2022-12-20T11:20:23.488Z,45.23
2022-12-20T11:23:12.816Z,45.45
2022-12-20T11:25:52.173Z,45.12
2022-12-20T11:28:34.599Z,45.04
2022-12-20T11:31:01.614Z,45.37
2022-12-20T11:33:43.056Z,44.94
2022-12-20T11:36:14.381Z,44.89
2022-12-20T11:38:43.662Z,45.00
2022-12-20T11:41:19.444Z,44.88
2022-12-20T11:44:24.112Z,45.06
2022-12-20T11:47:17.338Z,44.77
2022-12-20T11:50:04.007Z,44.99
2022-12-20T11:53:14.555Z,45.00
2022-12-20T11:55:43.561Z,44.39
2022-12-20T11:58:35.065Z,44.50
2022-12-20T12:01:09.024Z,44.06
2022-12-20T12:03:37.485Z,44.12
2022-12-20T12:06:21.506Z,44.50
2022-12-20T12:08:50.533Z,44.50
2022-12-20T12:11:56.213Z,44.22
2022-12-20T12:14:17.364Z,44.62
2022-12-20T12:16:47.937Z,44.27
2022-12-20T12:19:15.896Z,44.11
2022-12-20T12:21:58.357Z,44.05
2022-12-20T12:24:30.405Z,44.04
2022-12-20T12:26:59.491Z,44.07
2022-12-20T12:29:29.044Z,43.73
2022-12-20T12:32:00.883Z,43.90
2022-12-20T12:34:33.885Z,43.46
2022-12-20T12:37:06.719Z,43.48
2022-12-20T12:39:54.428Z,43.55
2022-12-20T12:42:24.329Z,43.69
2022-12-20T12:45:05.863Z,43.14
2022-12-20T12:47:46.079Z,43.77
2022-12-20T12:50:21.809Z,43.70
2022-12-20T12:53:04.122Z,43.26
2022-12-20T12:55:50.632Z,43.90
2022-12-20T12:58:23.969Z,43.64
2022-12-20T13:00:51.949Z,43.33
2022-12-20T13:03:46.240Z,43.63
2022-12-20T13:06:25.447Z,43.62
2022-12-20T13:08:59.032Z,43.33
2022-12-20T13:11:35.949Z,43.69
2022-12-20T13:14:31.824Z,43.17
2022-12-20T13:17:22.379Z,43.73
2022-12-20T13:19:52.697Z,43.75
2022-12-20T13:22:24.041Z,43.84
2022-12-20T13:25:03.048Z,43.64
2022-12-20T13:27:40.541Z,43.54
2022-12-20T13:30:07.398Z,43.62
2022-12-20T13:32:49.278Z,43.70
2022-12-20T13:35:25.302Z,44.13
2022-12-20T13:37:59.058Z,44.19
2022-12-20T13:40:45.149Z,44.20
2022-12-20T13:43:24.395Z,43.90
2022-12-20T13:45:55.089Z,43.91
2022-12-20T13:48:54.944Z,44.25
2022-12-20T13:51:27.108Z,44.40
2022-12-20T13:54:16.745Z,44.39
2022-12-20T13:56:50.763Z,44.22
2022-12-20T13:59:30.431Z,44.20
2022-12-20T14:02:03.330Z,44.16
2022-12-20T14:04:42.021Z,44.36
2022-12-20T14:07:13.065Z,44.26
2022-12-20T14:09:40.000Z,44.58
2022-12-20T14:12:08.237Z,44.51
2022-12-20T14:14:39.496Z,44.04
2022-12-20T14:17:32.198Z,44.26
2022-12-20T14:20:16.407Z,44.61
2022-12-20T14:22:59.247Z,44.30
2022-12-20T14:25:33.786Z,44.16
2022-12-20T14:28:00.832Z,44.21
2022-12-20T14:30:33.467Z,44.28
2022-12-20T14:33:00.737Z,44.56
2022-12-20T14:35:28.251Z,44.53
2022-12-20T14:38:00.373Z,44.67
2022-12-20T14:40:28.052Z,44.67
2022-12-20T14:42:55.001Z,44.77
2022-12-20T14:45:25.736Z,44.80
2022-12-20T14:48:03.890Z,44.60
2022-12-20T14:50:36.612Z,44.82
2022-12-20T14:53:04.329Z,45.05
2022-12-20T14:55:36.997Z,44.74
2022-12-20T14:58:24.820Z,44.85
2022-12-20T15:00:56.958Z,45.33
2022-12-20T15:03:24.780Z,44.92
2022-12-20T15:05:54.367Z,44.89
2022-12-20T15:08:34.771Z,45.30
2022-12-20T15:11:10.796Z,45.16
2022-12-20T15:13:40.779Z,45.51
2022-12-20T15:16:16.122Z,45.61
2022-12-20T15:18:43.010Z,45.76
2022-12-20T15:21:29.752Z,45.83
2022-12-20T15:23:57.804Z,45.88
2022-12-20T15:26:26.433Z,45.78
2022-12-20T15:28:53.845Z,46.07
2022-12-20T15:31:30.835Z,45.98
2022-12-20T15:34:02.323Z,46.28
2022-12-20T15:36:29.992Z,46.25
2022-12-20T15:39:14.170Z,46.28
2022-12-20T15:41:44.008Z,46.45
2022-12-20T15:44:20.111Z,46.43
2022-12-20T15:46:47.753Z,46.26
2022-12-20T15:49:23.179Z,46.80
2022-12-20T15:51:52.904Z,46.45
2022-12-20T15:54:22.993Z,46.68
2022-12-20T15:56:50.424Z,46.56
2022-12-20T15:59:57.882Z,46.66
2022-12-20T16:02:12.610Z,47.09
2022-12-20T16:04:39.378Z,46.93
2022-12-20T16:07:12.116Z,46.98
2022-12-20T16:09:39.678Z,46.82
2022-12-20T16:12:14.426Z,47.44
2022-12-20T16:14:41.232Z,47.20
2022-12-20T16:17:14.043Z,47.47
2022-12-20T16:19:42.501Z,47.46
2022-12-20T16:22:20.397Z,47.07
2022-12-20T16:24:47.387Z,47.66
2022-12-20T16:27:14.284Z,47.46
2022-12-20T16:29:41.728Z,47.82
2022-12-20T16:32:15.076Z,47.50
2022-12-20T16:34:41.901Z,47.67
2022-12-20T16:37:08.578Z,48.09
2022-12-20T16:39:35.355Z,47.97
2022-12-20T16:42:02.083Z,47.93
2022-12-20T16:44:28.996Z,48.35
2022-12-20T16:46:55.763Z,48.52
2022-12-20T16:49:22.511Z,48.37
2022-12-20T16:51:49.670Z,48.41
2022-12-20T16:54:22.435Z,48.46
2022-12-20T16:56:56.115Z,48.40
2022-12-20T16:59:23.882Z,48.29
2022-12-20T17:01:53.378Z,48.23
2022-12-20T17:04:21.246Z,48.28
2022-12-20T17:06:48.347Z,48.36
2022-12-20T17:12:00.876Z,48.50
2022-12-20T17:14:27.569Z,48.48
2022-12-20T17:16:55.349Z,48.47
2022-12-20T17:19:25.315Z,48.52
2022-12-20T17:24:36.257Z,48.19
2022-12-20T17:27:02.940Z,48.42
2022-12-20T17:29:29.814Z,48.20
2022-12-20T17:31:56.611Z,48.32
2022-12-20T17:34:23.313Z,48.52
2022-12-20T17:36:51.861Z,48.22
2022-12-20T17:39:19.137Z,48.37
2022-12-20T17:41:46.539Z,48.50
2022-12-20T17:44:28.053Z,48.48
2022-12-20T17:46:56.449Z,48.15
2022-12-20T17:49:24.010Z,48.32
2022-12-20T17:51:51.660Z,48.54
2022-12-20T17:54:20.784Z,48.66
2022-12-20T17:56:48.121Z,48.30
2022-12-20T17:59:14.965Z,48.23
2022-12-20T18:01:43.201Z,48.47
2022-12-20T18:04:13.365Z,48.21
2022-12-20T18:06:42.022Z,48.12
2022-12-20T18:09:17.705Z,48.20
2022-12-20T18:11:45.116Z,48.37
2022-12-20T18:14:12.544Z,48.19
2022-12-20T18:16:39.891Z,48.58
2022-12-20T18:19:08.243Z,48.47
2022-12-20T18:21:35.045Z,48.07
2022-12-20T18:24:01.711Z,48.14
2022-12-20T18:26:30.673Z,48.08
2022-12-20T18:29:02.157Z,48.34
2022-12-20T18:31:31.465Z,48.55
2022-12-20T18:33:59.142Z,48.40
2022-12-20T18:36:29.067Z,48.08
2022-12-20T18:38:57.624Z,48.50
2022-12-20T18:41:26.629Z,48.01
2022-12-20T18:43:56.356Z,47.97
2022-12-20T18:46:23.753Z,48.43
2022-12-20T18:48:52.825Z,48.39
2022-12-20T18:51:24.836Z,48.33
2022-12-20T18:53:55.237Z,48.14
2022-12-20T18:56:31.302Z,48.04
2022-12-20T18:59:08.104Z,48.07
2022-12-20T19:01:38.748Z,48.58
2022-12-20T19:04:06.665Z,48.29
2022-12-20T19:06:34.464Z,48.17
2022-12-20T19:09:02.432Z,48.57
2022-12-20T19:11:29.266Z,48.55
2022-12-20T19:13:56.397Z,48.59
2022-12-20T19:16:25.450Z,48.42
2022-12-20T19:18:52.516Z,48.72
2022-12-20T19:21:22.364Z,48.42
2022-12-20T19:23:50.919Z,48.35
2022-12-20T19:26:19.459Z,48.82
2022-12-20T19:28:47.107Z,48.85
2022-12-20T19:31:21.592Z,49.01
2022-12-20T19:33:50.239Z,49.16
2022-12-20T19:36:25.152Z,49.04
2022-12-20T19:38:55.905Z,48.92
2022-12-20T19:41:25.043Z,48.94
2022-12-20T19:43:52.477Z,49.48
2022-12-20T19:46:28.007Z,49.35
2022-12-20T19:48:56.554Z,49.50
2022-12-20T19:51:25.899Z,49.34
2022-12-20T19:53:53.950Z,49.81
2022-12-20T19:56:25.293Z,49.72
2022-12-20T19:58:52.856Z,49.70
2022-12-20T20:01:22.989Z,49.60
2022-12-20T20:03:50.036Z,49.60
2022-12-20T20:06:16.960Z,49.88
2022-12-20T20:08:44.777Z,49.98
2022-12-20T20:11:12.100Z,50.17
2022-12-20T20:13:38.951Z,50.39
2022-12-20T20:16:18.444Z,50.36
2022-12-20T20:18:58.908Z,50.38
2022-12-20T20:21:27.251Z,50.63
2022-12-20T20:24:01.400Z,50.59
2022-12-20T20:26:32.030Z,50.62
2022-12-20T20:29:01.075Z,50.51
2022-12-20T20:31:27.921Z,50.67
2022-12-20T20:33:54.803Z,50.47
2022-12-20T20:36:23.361Z,50.74
2022-12-20T20:38:51.777Z,50.60
2022-12-20T20:41:18.577Z,50.39
2022-12-20T20:43:45.442Z,50.74
2022-12-20T20:46:13.622Z,50.63
2022-12-20T20:48:41.126Z,50.84
2022-12-20T20:51:08.010Z,50.96
2022-12-20T20:53:35.291Z,50.68
2022-12-20T20:56:08.310Z,51.11
2022-12-20T20:58:35.619Z,50.70
2022-12-20T21:01:05.108Z,50.84
2022-12-20T21:03:32.193Z,51.13
2022-12-20T21:08:47.075Z,50.85
2022-12-20T21:11:14.268Z,50.98
2022-12-20T21:13:41.192Z,51.43
2022-12-20T21:16:14.288Z,51.51
2022-12-20T21:18:41.744Z,51.04
2022-12-20T21:21:10.611Z,51.35
2022-12-20T21:23:38.523Z,51.31
2022-12-20T21:26:05.406Z,51.45
2022-12-20T21:28:32.236Z,51.50
2022-12-20T21:31:00.661Z,51.41
2022-12-20T21:33:28.167Z,51.07
2022-12-20T21:36:06.535Z,51.52
2022-12-20T21:38:33.698Z,51.16
2022-12-20T21:41:08.364Z,51.56
2022-12-20T21:43:35.112Z,51.30
2022-12-20T21:46:01.931Z,51.61
2022-12-20T21:48:29.770Z,51.30
2022-12-20T21:51:06.839Z,51.44
2022-12-20T21:53:44.308Z,51.35
2022-12-20T21:56:13.060Z,51.35
2022-12-20T21:58:39.723Z,51.46
2022-12-20T22:01:08.189Z,51.83
2022-12-20T22:03:40.176Z,51.42
2022-12-20T22:06:08.237Z,51.89
2022-12-20T22:08:34.999Z,51.54
2022-12-20T22:11:12.596Z,51.70
2022-12-20T22:13:42.117Z,51.55
2022-12-20T22:16:11.936Z,51.72
2022-12-20T22:18:39.517Z,51.82
2022-12-20T22:21:07.937Z,51.97
2022-12-20T22:23:35.132Z,51.74
2022-12-20T22:26:16.049Z,52.09
2022-12-20T22:29:03.237Z,52.18
2022-12-20T22:31:30.623Z,51.97
2022-12-20T22:33:58.410Z,51.79
2022-12-20T22:36:26.446Z,52.18
2022-12-20T22:39:00.711Z,51.85
2022-12-20T22:41:32.417Z,52.00
2022-12-20T22:44:00.219Z,51.85
2022-12-20T22:46:29.369Z,52.08
2022-12-20T22:48:57.517Z,52.28
2022-12-20T22:51:27.069Z,52.19
2022-12-20T22:53:57.445Z,52.18
2022-12-20T22:56:24.225Z,51.91
2022-12-20T22:58:51.001Z,52.21
2022-12-20T23:01:19.401Z,52.35
2022-12-20T23:03:46.287Z,52.16
2022-12-20T23:06:15.801Z,52.04
2022-12-20T23:08:42.533Z,52.16
2022-12-20T23:11:42.790Z,52.49
2022-12-20T23:14:33.842Z,52.17
2022-12-20T23:17:00.937Z,52.17
2022-12-20T23:19:28.288Z,52.57
2022-12-20T23:22:13.743Z,52.13
2022-12-20T23:24:40.509Z,52.64
2022-12-20T23:27:07.205Z,52.69
2022-12-20T23:29:34.065Z,52.30
2022-12-20T23:32:00.767Z,52.34
2022-12-20T23:34:28.231Z,52.63
2022-12-20T23:36:54.964Z,52.75
2022-12-20T23:39:21.668Z,52.62
2022-12-20T23:41:48.368Z,52.55
2022-12-20T23:44:15.207Z,52.82
2022-12-20T23:46:41.838Z,52.33
2022-12-20T23:49:08.868Z,52.55
2022-12-20T23:51:35.584Z,52.66
2022-12-20T23:54:02.383Z,52.86
2022-12-20T23:56:29.082Z,52.92
2022-12-20T23:58:57.216Z,52.45
